sensor_id;sensor_type;location;lat;lon;timestamp;P1;durP1;ratioP1;P2;durP2;ratioP2
7377;SDS011;3730;50.856;12.776;2022-07-06T00:01:16;4.07;;;2.03;;
7377;SDS011;3730;50.856;12.776;2022-07-06T00:03:42;2.60;;;1.93;;
7377;SDS011;3730;50.856;12.776;2022-07-06T00:06:08;2.60;;;2.40;;
7377;SDS011;3730;50.856;12.776;2022-07-06T00:08:34;4.43;;;2.27;;
7377;SDS011;3730;50.856;12.776;2022-07-06T00:11:00;2.20;;;2.10;;
7377;SDS011;3730;50.856;12.776;2022-07-06T00:13:26;2.00;;;1.90;;
7377;SDS011;3730;50.856;12.776;2022-07-06T00:15:52;1.90;;;1.70;;
7377;SDS011;3730;50.856;12.776;2022-07-06T00:18:19;2.80;;;2.07;;
7377;SDS011;3730;50.856;12.776;2022-07-06T00:20:45;2.30;;;2.10;;
7377;SDS011;3730;50.856;12.776;2022-07-06T00:23:11;2.53;;;2.30;;
7377;SDS011;3730;50.856;12.776;2022-07-06T00:25:37;2.30;;;2.10;;
7377;SDS011;3730;50.856;12.776;2022-07-06T00:28:03;2.10;;;2.00;;
7377;SDS011;3730;50.856;12.776;2022-07-06T00:30:29;4.33;;;2.10;;
7377;SDS011;3730;50.856;12.776;2022-07-06T00:32:55;2.20;;;2.00;;
7377;SDS011;3730;50.856;12.776;2022-07-06T00:35:23;2.97;;;2.17;;
7377;SDS011;3730;50.856;12.776;2022-07-06T00:37:49;2.47;;;2.27;;
7377;SDS011;3730;50.856;12.776;2022-07-06T00:40:16;2.70;;;2.50;;
7377;SDS011;3730;50.856;12.776;2022-07-06T00:42:42;2.23;;;2.10;;
7377;SDS011;3730;50.856;12.776;2022-07-06T00:45:09;2.50;;;2.30;;
7377;SDS011;3730;50.856;12.776;2022-07-06T00:47:36;3.40;;;2.13;;
7377;SDS011;3730;50.856;12.776;2022-07-06T00:50:03;3.30;;;2.30;;
7377;SDS011;3730;50.856;12.776;2022-07-06T00:55:17;2.50;;;2.30;;
7377;SDS011;3730;50.856;12.776;2022-07-06T00:57:43;3.20;;;2.40;;
7377;SDS011;3730;50.856;12.776;2022-07-06T01:00:10;3.23;;;2.87;;
7377;SDS011;3730;50.856;12.776;2022-07-06T01:02:37;2.33;;;2.10;;
7377;SDS011;3730;50.856;12.776;2022-07-06T01:05:03;2.60;;;2.40;;
7377;SDS011;3730;50.856;12.776;2022-07-06T01:07:30;2.23;;;2.03;;
7377;SDS011;3730;50.856;12.776;2022-07-06T01:09:56;2.23;;;1.87;;
7377;SDS011;3730;50.856;12.776;2022-07-06T01:12:22;2.43;;;2.23;;
7377;SDS011;3730;50.856;12.776;2022-07-06T01:14:49;2.10;;;1.90;;
7377;SDS011;3730;50.856;12.776;2022-07-06T01:17:15;2.33;;;2.13;;
7377;SDS011;3730;50.856;12.776;2022-07-06T01:19:41;2.10;;;1.90;;
7377;SDS011;3730;50.856;12.776;2022-07-06T01:22:08;2.30;;;2.10;;
7377;SDS011;3730;50.856;12.776;2022-07-06T01:24:37;3.27;;;2.50;;
7377;SDS011;3730;50.856;12.776;2022-07-06T01:27:04;2.47;;;2.17;;
7377;SDS011;3730;50.856;12.776;2022-07-06T01:29:30;3.07;;;2.20;;
7377;SDS011;3730;50.856;12.776;2022-07-06T01:31:57;3.23;;;2.57;;
7377;SDS011;3730;50.856;12.776;2022-07-06T01:34:23;3.60;;;2.60;;
7377;SDS011;3730;50.856;12.776;2022-07-06T01:36:49;3.47;;;2.70;;
7377;SDS011;3730;50.856;12.776;2022-07-06T01:39:15;4.40;;;2.67;;
7377;SDS011;3730;50.856;12.776;2022-07-06T01:41:41;2.50;;;2.30;;
7377;SDS011;3730;50.856;12.776;2022-07-06T01:44:07;2.60;;;2.33;;
7377;SDS011;3730;50.856;12.776;2022-07-06T01:46:33;2.20;;;2.00;;
7377;SDS011;3730;50.856;12.776;2022-07-06T01:48:59;2.10;;;2.00;;
7377;SDS011;3730;50.856;12.776;2022-07-06T01:51:25;2.50;;;2.30;;
7377;SDS011;3730;50.856;12.776;2022-07-06T01:53:52;2.50;;;2.30;;
7377;SDS011;3730;50.856;12.776;2022-07-06T01:56:18;2.57;;;2.43;;
7377;SDS011;3730;50.856;12.776;2022-07-06T01:58:48;2.70;;;2.50;;
7377;SDS011;3730;50.856;12.776;2022-07-06T02:01:17;2.90;;;2.37;;
7377;SDS011;3730;50.856;12.776;2022-07-06T02:03:43;2.70;;;2.50;;
7377;SDS011;3730;50.856;12.776;2022-07-06T02:06:10;3.37;;;2.30;;
7377;SDS011;3730;50.856;12.776;2022-07-06T02:08:39;2.73;;;2.50;;
7377;SDS011;3730;50.856;12.776;2022-07-06T02:11:06;2.87;;;2.67;;
7377;SDS011;3730;50.856;12.776;2022-07-06T02:13:33;3.47;;;2.40;;
7377;SDS011;3730;50.856;12.776;2022-07-06T02:15:59;3.53;;;2.50;;
7377;SDS011;3730;50.856;12.776;2022-07-06T02:18:25;2.47;;;2.20;;
7377;SDS011;3730;50.856;12.776;2022-07-06T02:20:51;2.60;;;2.50;;
7377;SDS011;3730;50.856;12.776;2022-07-06T02:23:17;3.30;;;2.90;;
7377;SDS011;3730;50.856;12.776;2022-07-06T02:25:43;2.63;;;2.43;;
7377;SDS011;3730;50.856;12.776;2022-07-06T02:28:09;3.33;;;2.67;;
7377;SDS011;3730;50.856;12.776;2022-07-06T02:30:35;2.70;;;2.50;;
7377;SDS011;3730;50.856;12.776;2022-07-06T02:33:01;2.93;;;2.73;;
7377;SDS011;3730;50.856;12.776;2022-07-06T02:35:27;2.93;;;2.70;;
7377;SDS011;3730;50.856;12.776;2022-07-06T02:37:53;3.23;;;2.67;;
7377;SDS011;3730;50.856;12.776;2022-07-06T02:40:19;3.83;;;2.50;;
7377;SDS011;3730;50.856;12.776;2022-07-06T02:42:45;4.13;;;2.80;;
7377;SDS011;3730;50.856;12.776;2022-07-06T02:45:11;4.23;;;2.87;;
7377;SDS011;3730;50.856;12.776;2022-07-06T02:47:37;4.10;;;2.93;;
7377;SDS011;3730;50.856;12.776;2022-07-06T02:50:04;3.73;;;2.93;;
7377;SDS011;3730;50.856;12.776;2022-07-06T02:52:31;3.10;;;2.73;;
7377;SDS011;3730;50.856;12.776;2022-07-06T02:54:57;5.20;;;2.90;;
7377;SDS011;3730;50.856;12.776;2022-07-06T02:57:23;3.00;;;2.70;;
7377;SDS011;3730;50.856;12.776;2022-07-06T02:59:49;2.90;;;2.60;;
7377;SDS011;3730;50.856;12.776;2022-07-06T03:02:15;2.90;;;2.60;;
7377;SDS011;3730;50.856;12.776;2022-07-06T03:04:41;3.93;;;2.60;;
7377;SDS011;3730;50.856;12.776;2022-07-06T03:07:07;3.70;;;2.73;;
7377;SDS011;3730;50.856;12.776;2022-07-06T03:09:33;3.20;;;2.90;;
7377;SDS011;3730;50.856;12.776;2022-07-06T03:12:00;2.80;;;2.50;;
7377;SDS011;3730;50.856;12.776;2022-07-06T03:14:26;2.50;;;2.33;;
7377;SDS011;3730;50.856;12.776;2022-07-06T03:16:52;2.90;;;2.70;;
7377;SDS011;3730;50.856;12.776;2022-07-06T03:19:19;2.70;;;2.50;;
7377;SDS011;3730;50.856;12.776;2022-07-06T03:21:45;4.43;;;3.20;;
7377;SDS011;3730;50.856;12.776;2022-07-06T03:24:11;2.40;;;2.20;;
7377;SDS011;3730;50.856;12.776;2022-07-06T03:26:37;2.93;;;2.70;;
7377;SDS011;3730;50.856;12.776;2022-07-06T03:29:03;2.90;;;2.33;;
7377;SDS011;3730;50.856;12.776;2022-07-06T03:31:29;3.70;;;2.67;;
7377;SDS011;3730;50.856;12.776;2022-07-06T03:33:55;2.40;;;2.30;;
7377;SDS011;3730;50.856;12.776;2022-07-06T03:36:21;2.90;;;2.50;;
7377;SDS011;3730;50.856;12.776;2022-07-06T03:38:47;3.20;;;2.90;;
7377;SDS011;3730;50.856;12.776;2022-07-06T03:41:13;3.97;;;2.87;;
7377;SDS011;3730;50.856;12.776;2022-07-06T03:43:39;2.77;;;2.37;;
7377;SDS011;3730;50.856;12.776;2022-07-06T03:46:05;2.97;;;2.70;;
7377;SDS011;3730;50.856;12.776;2022-07-06T03:48:31;3.03;;;2.77;;
7377;SDS011;3730;50.856;12.776;2022-07-06T03:50:57;3.23;;;2.93;;
7377;SDS011;3730;50.856;12.776;2022-07-06T03:53:24;3.17;;;2.67;;
7377;SDS011;3730;50.856;12.776;2022-07-06T03:55:50;5.60;;;3.10;;
7377;SDS011;3730;50.856;12.776;2022-07-06T03:58:34;4.03;;;3.07;;
7377;SDS011;3730;50.856;12.776;2022-07-06T04:01:00;5.33;;;2.80;;
7377;SDS011;3730;50.856;12.776;2022-07-06T04:03:26;4.37;;;3.40;;
7377;SDS011;3730;50.856;12.776;2022-07-06T04:05:53;4.03;;;3.10;;
7377;SDS011;3730;50.856;12.776;2022-07-06T04:08:19;5.50;;;3.40;;
7377;SDS011;3730;50.856;12.776;2022-07-06T04:10:45;3.83;;;3.27;;
7377;SDS011;3730;50.856;12.776;2022-07-06T04:13:11;4.07;;;3.50;;
7377;SDS011;3730;50.856;12.776;2022-07-06T04:15:37;3.97;;;3.57;;
7377;SDS011;3730;50.856;12.776;2022-07-06T04:18:04;5.13;;;3.50;;
7377;SDS011;3730;50.856;12.776;2022-07-06T04:20:30;4.70;;;3.60;;
7377;SDS011;3730;50.856;12.776;2022-07-06T04:22:56;5.40;;;4.07;;
7377;SDS011;3730;50.856;12.776;2022-07-06T04:25:22;5.43;;;3.93;;
7377;SDS011;3730;50.856;12.776;2022-07-06T04:27:48;4.70;;;3.97;;
7377;SDS011;3730;50.856;12.776;2022-07-06T04:30:14;3.87;;;3.57;;
7377;SDS011;3730;50.856;12.776;2022-07-06T04:32:41;4.00;;;3.70;;
7377;SDS011;3730;50.856;12.776;2022-07-06T04:35:07;5.03;;;3.70;;
7377;SDS011;3730;50.856;12.776;2022-07-06T04:37:33;5.50;;;4.30;;
7377;SDS011;3730;50.856;12.776;2022-07-06T04:39:59;7.40;;;4.40;;
7377;SDS011;3730;50.856;12.776;2022-07-06T04:42:25;7.50;;;4.50;;
7377;SDS011;3730;50.856;12.776;2022-07-06T04:44:51;4.70;;;4.30;;
7377;SDS011;3730;50.856;12.776;2022-07-06T04:47:17;6.37;;;4.30;;
7377;SDS011;3730;50.856;12.776;2022-07-06T04:49:43;6.80;;;4.50;;
7377;SDS011;3730;50.856;12.776;2022-07-06T04:52:09;4.90;;;4.03;;
7377;SDS011;3730;50.856;12.776;2022-07-06T04:54:35;6.87;;;4.57;;
7377;SDS011;3730;50.856;12.776;2022-07-06T04:57:02;5.33;;;4.10;;
7377;SDS011;3730;50.856;12.776;2022-07-06T04:59:28;6.93;;;4.60;;
7377;SDS011;3730;50.856;12.776;2022-07-06T05:01:54;4.13;;;3.83;;
7377;SDS011;3730;50.856;12.776;2022-07-06T05:04:20;8.83;;;3.90;;
7377;SDS011;3730;50.856;12.776;2022-07-06T05:06:47;5.60;;;4.80;;
7377;SDS011;3730;50.856;12.776;2022-07-06T05:09:13;4.47;;;4.07;;
7377;SDS011;3730;50.856;12.776;2022-07-06T05:11:39;3.60;;;3.30;;
7377;SDS011;3730;50.856;12.776;2022-07-06T05:14:05;4.67;;;3.50;;
7377;SDS011;3730;50.856;12.776;2022-07-06T05:16:31;5.27;;;4.00;;
7377;SDS011;3730;50.856;12.776;2022-07-06T05:18:58;9.23;;;4.10;;
7377;SDS011;3730;50.856;12.776;2022-07-06T05:21:24;10.77;;;4.73;;
7377;SDS011;3730;50.856;12.776;2022-07-06T05:23:50;4.37;;;3.33;;
7377;SDS011;3730;50.856;12.776;2022-07-06T05:26:16;5.07;;;3.30;;
7377;SDS011;3730;50.856;12.776;2022-07-06T05:28:42;6.23;;;3.67;;
7377;SDS011;3730;50.856;12.776;2022-07-06T05:31:09;5.60;;;3.40;;
7377;SDS011;3730;50.856;12.776;2022-07-06T05:33:35;6.97;;;3.60;;
7377;SDS011;3730;50.856;12.776;2022-07-06T05:36:01;5.07;;;3.70;;
7377;SDS011;3730;50.856;12.776;2022-07-06T05:38:27;5.27;;;2.97;;
7377;SDS011;3730;50.856;12.776;2022-07-06T05:40:53;4.90;;;3.10;;
7377;SDS011;3730;50.856;12.776;2022-07-06T05:43:19;6.50;;;3.33;;
7377;SDS011;3730;50.856;12.776;2022-07-06T05:45:45;9.80;;;3.33;;
7377;SDS011;3730;50.856;12.776;2022-07-06T05:48:11;2.83;;;2.50;;
7377;SDS011;3730;50.856;12.776;2022-07-06T05:50:55;4.73;;;3.10;;
7377;SDS011;3730;50.856;12.776;2022-07-06T05:53:21;3.17;;;2.07;;
7377;SDS011;3730;50.856;12.776;2022-07-06T05:55:47;3.67;;;2.50;;
7377;SDS011;3730;50.856;12.776;2022-07-06T05:58:14;3.17;;;2.20;;
7377;SDS011;3730;50.856;12.776;2022-07-06T06:00:40;4.50;;;2.30;;
7377;SDS011;3730;50.856;12.776;2022-07-06T06:03:06;3.53;;;2.00;;
7377;SDS011;3730;50.856;12.776;2022-07-06T06:05:32;4.50;;;2.37;;
7377;SDS011;3730;50.856;12.776;2022-07-06T06:07:58;3.70;;;1.97;;
7377;SDS011;3730;50.856;12.776;2022-07-06T06:10:24;2.93;;;1.80;;
7377;SDS011;3730;50.856;12.776;2022-07-06T06:12:50;3.70;;;2.10;;
7377;SDS011;3730;50.856;12.776;2022-07-06T06:15:16;3.70;;;2.53;;
7377;SDS011;3730;50.856;12.776;2022-07-06T06:17:43;3.97;;;1.90;;
7377;SDS011;3730;50.856;12.776;2022-07-06T06:20:10;4.43;;;1.73;;
7377;SDS011;3730;50.856;12.776;2022-07-06T06:22:50;9.23;;;4.57;;
7377;SDS011;3730;50.856;12.776;2022-07-06T06:25:17;5.07;;;1.93;;
7377;SDS011;3730;50.856;12.776;2022-07-06T06:27:43;3.90;;;1.80;;
7377;SDS011;3730;50.856;12.776;2022-07-06T06:30:10;3.57;;;1.83;;
7377;SDS011;3730;50.856;12.776;2022-07-06T06:32:36;3.67;;;1.77;;
7377;SDS011;3730;50.856;12.776;2022-07-06T06:35:03;2.60;;;1.80;;
7377;SDS011;3730;50.856;12.776;2022-07-06T06:37:29;5.67;;;2.00;;
7377;SDS011;3730;50.856;12.776;2022-07-06T06:39:55;3.53;;;2.00;;
7377;SDS011;3730;50.856;12.776;2022-07-06T06:42:21;2.77;;;2.00;;
7377;SDS011;3730;50.856;12.776;2022-07-06T06:44:47;5.53;;;2.13;;
7377;SDS011;3730;50.856;12.776;2022-07-06T06:47:13;3.97;;;2.00;;
7377;SDS011;3730;50.856;12.776;2022-07-06T06:49:39;3.53;;;1.93;;
7377;SDS011;3730;50.856;12.776;2022-07-06T06:52:05;4.03;;;2.10;;
7377;SDS011;3730;50.856;12.776;2022-07-06T06:54:31;2.20;;;1.40;;
7377;SDS011;3730;50.856;12.776;2022-07-06T06:56:58;8.93;;;1.80;;
7377;SDS011;3730;50.856;12.776;2022-07-06T06:59:24;7.13;;;3.77;;
7377;SDS011;3730;50.856;12.776;2022-07-06T07:01:50;2.20;;;1.63;;
7377;SDS011;3730;50.856;12.776;2022-07-06T07:04:16;2.80;;;1.70;;
7377;SDS011;3730;50.856;12.776;2022-07-06T07:06:42;4.33;;;1.73;;
7377;SDS011;3730;50.856;12.776;2022-07-06T07:09:08;3.20;;;2.00;;
7377;SDS011;3730;50.856;12.776;2022-07-06T07:11:34;4.23;;;1.80;;
7377;SDS011;3730;50.856;12.776;2022-07-06T07:14:00;3.43;;;1.77;;
7377;SDS011;3730;50.856;12.776;2022-07-06T07:16:27;4.43;;;1.93;;
7377;SDS011;3730;50.856;12.776;2022-07-06T07:18:53;3.50;;;1.90;;
7377;SDS011;3730;50.856;12.776;2022-07-06T07:21:18;4.67;;;1.77;;
7377;SDS011;3730;50.856;12.776;2022-07-06T07:23:45;1.97;;;1.67;;
7377;SDS011;3730;50.856;12.776;2022-07-06T07:26:11;4.37;;;2.43;;
7377;SDS011;3730;50.856;12.776;2022-07-06T07:28:37;7.83;;;2.23;;
7377;SDS011;3730;50.856;12.776;2022-07-06T07:31:04;4.40;;;1.83;;
7377;SDS011;3730;50.856;12.776;2022-07-06T07:33:30;2.00;;;1.73;;
7377;SDS011;3730;50.856;12.776;2022-07-06T07:35:56;2.80;;;1.50;;
7377;SDS011;3730;50.856;12.776;2022-07-06T07:38:22;3.90;;;1.33;;
7377;SDS011;3730;50.856;12.776;2022-07-06T07:40:48;3.87;;;1.63;;
7377;SDS011;3730;50.856;12.776;2022-07-06T07:43:14;2.40;;;1.60;;
7377;SDS011;3730;50.856;12.776;2022-07-06T07:45:40;2.60;;;1.70;;
7377;SDS011;3730;50.856;12.776;2022-07-06T07:48:06;3.30;;;1.70;;
7377;SDS011;3730;50.856;12.776;2022-07-06T07:50:32;3.57;;;2.07;;
7377;SDS011;3730;50.856;12.776;2022-07-06T07:52:59;5.10;;;1.80;;
7377;SDS011;3730;50.856;12.776;2022-07-06T07:55:25;5.33;;;2.20;;
7377;SDS011;3730;50.856;12.776;2022-07-06T07:57:51;2.13;;;1.50;;
7377;SDS011;3730;50.856;12.776;2022-07-06T08:00:18;2.93;;;1.80;;
7377;SDS011;3730;50.856;12.776;2022-07-06T08:02:46;4.10;;;1.90;;
7377;SDS011;3730;50.856;12.776;2022-07-06T08:05:12;2.23;;;1.50;;
7377;SDS011;3730;50.856;12.776;2022-07-06T08:07:41;4.77;;;1.87;;
7377;SDS011;3730;50.856;12.776;2022-07-06T08:10:07;3.67;;;1.60;;
7377;SDS011;3730;50.856;12.776;2022-07-06T08:12:33;4.03;;;1.77;;
7377;SDS011;3730;50.856;12.776;2022-07-06T08:14:59;2.50;;;1.23;;
7377;SDS011;3730;50.856;12.776;2022-07-06T08:17:25;4.93;;;1.50;;
7377;SDS011;3730;50.856;12.776;2022-07-06T08:19:51;2.50;;;1.30;;
7377;SDS011;3730;50.856;12.776;2022-07-06T08:22:17;1.70;;;1.10;;
7377;SDS011;3730;50.856;12.776;2022-07-06T08:24:43;1.77;;;1.03;;
7377;SDS011;3730;50.856;12.776;2022-07-06T08:27:09;3.90;;;1.33;;
7377;SDS011;3730;50.856;12.776;2022-07-06T08:29:35;3.80;;;1.30;;
7377;SDS011;3730;50.856;12.776;2022-07-06T08:32:01;9.87;;;1.80;;
7377;SDS011;3730;50.856;12.776;2022-07-06T08:34:27;3.13;;;1.33;;
7377;SDS011;3730;50.856;12.776;2022-07-06T08:36:53;2.67;;;1.00;;
7377;SDS011;3730;50.856;12.776;2022-07-06T08:39:19;3.73;;;1.20;;
7377;SDS011;3730;50.856;12.776;2022-07-06T08:41:45;3.43;;;1.10;;
7377;SDS011;3730;50.856;12.776;2022-07-06T08:44:13;3.27;;;1.40;;
7377;SDS011;3730;50.856;12.776;2022-07-06T08:46:39;2.93;;;1.73;;
7377;SDS011;3730;50.856;12.776;2022-07-06T08:49:06;4.07;;;1.40;;
7377;SDS011;3730;50.856;12.776;2022-07-06T08:51:33;3.27;;;1.20;;
7377;SDS011;3730;50.856;12.776;2022-07-06T08:54:01;2.80;;;1.37;;
7377;SDS011;3730;50.856;12.776;2022-07-06T08:56:27;2.53;;;2.30;;
7377;SDS011;3730;50.856;12.776;2022-07-06T08:58:54;1.57;;;1.37;;
7377;SDS011;3730;50.856;12.776;2022-07-06T09:01:20;2.60;;;1.40;;
7377;SDS011;3730;50.856;12.776;2022-07-06T09:03:48;4.47;;;2.00;;
7377;SDS011;3730;50.856;12.776;2022-07-06T09:06:16;2.40;;;1.47;;
7377;SDS011;3730;50.856;12.776;2022-07-06T09:08:42;3.53;;;1.80;;
7377;SDS011;3730;50.856;12.776;2022-07-06T09:11:09;2.63;;;2.00;;
7377;SDS011;3730;50.856;12.776;2022-07-06T09:13:35;2.60;;;1.80;;
7377;SDS011;3730;50.856;12.776;2022-07-06T09:16:13;3.40;;;1.57;;
7377;SDS011;3730;50.856;12.776;2022-07-06T09:18:42;3.40;;;1.80;;
7377;SDS011;3730;50.856;12.776;2022-07-06T09:21:09;3.67;;;1.70;;
7377;SDS011;3730;50.856;12.776;2022-07-06T09:23:35;5.53;;;2.07;;
7377;SDS011;3730;50.856;12.776;2022-07-06T09:26:07;2.83;;;2.00;;
7377;SDS011;3730;50.856;12.776;2022-07-06T09:28:40;4.07;;;1.87;;
7377;SDS011;3730;50.856;12.776;2022-07-06T09:31:06;6.07;;;2.40;;
7377;SDS011;3730;50.856;12.776;2022-07-06T09:33:32;2.97;;;2.10;;
7377;SDS011;3730;50.856;12.776;2022-07-06T09:36:00;4.17;;;1.97;;
7377;SDS011;3730;50.856;12.776;2022-07-06T09:38:27;3.90;;;1.90;;
7377;SDS011;3730;50.856;12.776;2022-07-06T09:40:54;3.83;;;2.00;;
7377;SDS011;3730;50.856;12.776;2022-07-06T09:43:21;3.43;;;2.40;;
7377;SDS011;3730;50.856;12.776;2022-07-06T09:48:26;2.07;;;1.80;;
7377;SDS011;3730;50.856;12.776;2022-07-06T09:50:53;3.43;;;2.00;;
7377;SDS011;3730;50.856;12.776;2022-07-06T09:53:20;3.40;;;1.83;;
7377;SDS011;3730;50.856;12.776;2022-07-06T09:55:47;3.37;;;1.80;;
7377;SDS011;3730;50.856;12.776;2022-07-06T09:58:14;3.27;;;2.53;;
7377;SDS011;3730;50.856;12.776;2022-07-06T10:00:41;5.43;;;2.50;;
7377;SDS011;3730;50.856;12.776;2022-07-06T10:03:07;2.93;;;2.20;;
7377;SDS011;3730;50.856;12.776;2022-07-06T10:05:36;3.33;;;1.90;;
7377;SDS011;3730;50.856;12.776;2022-07-06T10:08:02;3.37;;;1.60;;
7377;SDS011;3730;50.856;12.776;2022-07-06T10:10:30;2.10;;;1.60;;
7377;SDS011;3730;50.856;12.776;2022-07-06T10:12:57;3.07;;;2.23;;
7377;SDS011;3730;50.856;12.776;2022-07-06T10:15:27;4.37;;;2.00;;
7377;SDS011;3730;50.856;12.776;2022-07-06T10:17:53;4.60;;;2.37;;
7377;SDS011;3730;50.856;12.776;2022-07-06T10:20:21;2.50;;;1.73;;
7377;SDS011;3730;50.856;12.776;2022-07-06T10:22:47;6.13;;;2.17;;
7377;SDS011;3730;50.856;12.776;2022-07-06T10:25:15;3.67;;;2.00;;
7377;SDS011;3730;50.856;12.776;2022-07-06T10:27:41;2.73;;;1.83;;
7377;SDS011;3730;50.856;12.776;2022-07-06T10:30:08;3.57;;;1.60;;
7377;SDS011;3730;50.856;12.776;2022-07-06T10:32:35;4.50;;;2.00;;
7377;SDS011;3730;50.856;12.776;2022-07-06T10:35:01;3.20;;;1.80;;
7377;SDS011;3730;50.856;12.776;2022-07-06T10:37:27;2.73;;;1.80;;
7377;SDS011;3730;50.856;12.776;2022-07-06T10:39:54;5.00;;;2.20;;
7377;SDS011;3730;50.856;12.776;2022-07-06T10:45:08;3.43;;;2.40;;
7377;SDS011;3730;50.856;12.776;2022-07-06T10:47:35;3.57;;;1.80;;
7377;SDS011;3730;50.856;12.776;2022-07-06T10:50:02;2.57;;;2.00;;
7377;SDS011;3730;50.856;12.776;2022-07-06T10:57:58;4.03;;;2.37;;
7377;SDS011;3730;50.856;12.776;2022-07-06T11:00:25;3.37;;;2.30;;
7377;SDS011;3730;50.856;12.776;2022-07-06T11:02:51;4.87;;;1.90;;
7377;SDS011;3730;50.856;12.776;2022-07-06T11:08:01;2.07;;;1.63;;
7377;SDS011;3730;50.856;12.776;2022-07-06T11:10:28;1.97;;;1.53;;
7377;SDS011;3730;50.856;12.776;2022-07-06T11:13:00;2.40;;;1.57;;
7377;SDS011;3730;50.856;12.776;2022-07-06T11:15:59;1.60;;;1.50;;
7377;SDS011;3730;50.856;12.776;2022-07-06T11:18:25;2.60;;;1.73;;
7377;SDS011;3730;50.856;12.776;2022-07-06T11:21:14;3.17;;;1.97;;
7377;SDS011;3730;50.856;12.776;2022-07-06T11:23:41;3.93;;;1.90;;
7377;SDS011;3730;50.856;12.776;2022-07-06T11:26:07;2.87;;;1.60;;
7377;SDS011;3730;50.856;12.776;2022-07-06T11:28:34;6.87;;;2.07;;
7377;SDS011;3730;50.856;12.776;2022-07-06T11:31:00;3.07;;;1.53;;
7377;SDS011;3730;50.856;12.776;2022-07-06T11:33:29;2.53;;;1.47;;
7377;SDS011;3730;50.856;12.776;2022-07-06T11:38:57;3.93;;;1.60;;
7377;SDS011;3730;50.856;12.776;2022-07-06T11:41:23;1.83;;;1.27;;
7377;SDS011;3730;50.856;12.776;2022-07-06T11:43:49;3.43;;;1.50;;
7377;SDS011;3730;50.856;12.776;2022-07-06T11:46:23;5.87;;;1.60;;
7377;SDS011;3730;50.856;12.776;2022-07-06T11:48:50;5.93;;;1.40;;
7377;SDS011;3730;50.856;12.776;2022-07-06T11:51:16;3.73;;;1.30;;
7377;SDS011;3730;50.856;12.776;2022-07-06T11:53:46;3.03;;;1.33;;
7377;SDS011;3730;50.856;12.776;2022-07-06T11:56:15;2.10;;;1.40;;
7377;SDS011;3730;50.856;12.776;2022-07-06T11:58:43;2.13;;;1.50;;
7377;SDS011;3730;50.856;12.776;2022-07-06T12:01:12;3.27;;;1.50;;
7377;SDS011;3730;50.856;12.776;2022-07-06T12:03:38;2.27;;;1.50;;
7377;SDS011;3730;50.856;12.776;2022-07-06T12:06:04;3.00;;;1.80;;
7377;SDS011;3730;50.856;12.776;2022-07-06T12:08:31;1.83;;;1.50;;
7377;SDS011;3730;50.856;12.776;2022-07-06T12:10:59;2.30;;;1.30;;
7377;SDS011;3730;50.856;12.776;2022-07-06T12:13:25;2.00;;;1.20;;
7377;SDS011;3730;50.856;12.776;2022-07-06T12:15:51;3.47;;;1.83;;
7377;SDS011;3730;50.856;12.776;2022-07-06T12:18:17;2.00;;;1.10;;
7377;SDS011;3730;50.856;12.776;2022-07-06T12:20:43;2.53;;;1.47;;
7377;SDS011;3730;50.856;12.776;2022-07-06T12:23:09;3.07;;;1.50;;
7377;SDS011;3730;50.856;12.776;2022-07-06T12:25:36;2.80;;;1.30;;
7377;SDS011;3730;50.856;12.776;2022-07-06T12:28:02;1.40;;;1.20;;
7377;SDS011;3730;50.856;12.776;2022-07-06T12:30:29;2.50;;;1.30;;
7377;SDS011;3730;50.856;12.776;2022-07-06T12:33:13;3.80;;;1.73;;
7377;SDS011;3730;50.856;12.776;2022-07-06T12:35:40;3.03;;;1.60;;
7377;SDS011;3730;50.856;12.776;2022-07-06T12:38:07;2.03;;;1.37;;
7377;SDS011;3730;50.856;12.776;2022-07-06T12:40:34;4.27;;;2.40;;
7377;SDS011;3730;50.856;12.776;2022-07-06T12:43:00;2.87;;;1.40;;
7377;SDS011;3730;50.856;12.776;2022-07-06T12:45:27;6.43;;;2.63;;
7377;SDS011;3730;50.856;12.776;2022-07-06T12:48:26;4.17;;;1.90;;
7377;SDS011;3730;50.856;12.776;2022-07-06T12:50:46;3.57;;;1.50;;
7377;SDS011;3730;50.856;12.776;2022-07-06T12:53:25;1.83;;;1.43;;
7377;SDS011;3730;50.856;12.776;2022-07-06T12:56:10;6.40;;;1.90;;
7377;SDS011;3730;50.856;12.776;2022-07-06T12:58:36;6.13;;;1.67;;
7377;SDS011;3730;50.856;12.776;2022-07-06T13:01:02;2.10;;;1.40;;
7377;SDS011;3730;50.856;12.776;2022-07-06T13:03:37;1.30;;;1.10;;
7377;SDS011;3730;50.856;12.776;2022-07-06T13:06:04;2.00;;;1.30;;
7377;SDS011;3730;50.856;12.776;2022-07-06T13:08:30;3.17;;;1.73;;
7377;SDS011;3730;50.856;12.776;2022-07-06T13:10:56;2.40;;;1.57;;
7377;SDS011;3730;50.856;12.776;2022-07-06T13:13:22;4.00;;;2.17;;
7377;SDS011;3730;50.856;12.776;2022-07-06T13:15:49;2.87;;;1.83;;
7377;SDS011;3730;50.856;12.776;2022-07-06T13:18:15;2.73;;;1.50;;
7377;SDS011;3730;50.856;12.776;2022-07-06T13:20:43;4.90;;;1.90;;
7377;SDS011;3730;50.856;12.776;2022-07-06T13:23:09;4.20;;;1.53;;
7377;SDS011;3730;50.856;12.776;2022-07-06T13:25:35;2.23;;;1.50;;
7377;SDS011;3730;50.856;12.776;2022-07-06T13:28:01;2.77;;;1.53;;
7377;SDS011;3730;50.856;12.776;2022-07-06T13:30:26;1.73;;;1.30;;
7377;SDS011;3730;50.856;12.776;2022-07-06T13:32:52;4.87;;;1.47;;
7377;SDS011;3730;50.856;12.776;2022-07-06T13:35:18;2.47;;;1.50;;
7377;SDS011;3730;50.856;12.776;2022-07-06T13:37:44;2.63;;;1.43;;
7377;SDS011;3730;50.856;12.776;2022-07-06T13:40:14;2.53;;;1.80;;
7377;SDS011;3730;50.856;12.776;2022-07-06T13:42:39;3.77;;;1.30;;
7377;SDS011;3730;50.856;12.776;2022-07-06T13:45:05;3.13;;;1.40;;
7377;SDS011;3730;50.856;12.776;2022-07-06T13:47:31;4.90;;;1.60;;
7377;SDS011;3730;50.856;12.776;2022-07-06T13:49:57;6.57;;;1.40;;
7377;SDS011;3730;50.856;12.776;2022-07-06T13:52:24;3.10;;;1.70;;
7377;SDS011;3730;50.856;12.776;2022-07-06T13:54:50;1.60;;;1.03;;
7377;SDS011;3730;50.856;12.776;2022-07-06T13:57:16;1.80;;;1.30;;
7377;SDS011;3730;50.856;12.776;2022-07-06T13:59:41;1.70;;;1.37;;
7377;SDS011;3730;50.856;12.776;2022-07-06T14:02:08;2.93;;;1.20;;
7377;SDS011;3730;50.856;12.776;2022-07-06T14:04:33;1.93;;;1.70;;
7377;SDS011;3730;50.856;12.776;2022-07-06T14:06:59;5.47;;;1.50;;
7377;SDS011;3730;50.856;12.776;2022-07-06T14:09:25;1.80;;;1.20;;
7377;SDS011;3730;50.856;12.776;2022-07-06T14:11:51;2.97;;;1.27;;
7377;SDS011;3730;50.856;12.776;2022-07-06T14:14:17;6.10;;;1.50;;
7377;SDS011;3730;50.856;12.776;2022-07-06T14:16:42;3.73;;;1.57;;
7377;SDS011;3730;50.856;12.776;2022-07-06T14:19:08;2.53;;;1.50;;
7377;SDS011;3730;50.856;12.776;2022-07-06T14:21:35;2.87;;;1.17;;
7377;SDS011;3730;50.856;12.776;2022-07-06T14:24:01;1.87;;;1.10;;
7377;SDS011;3730;50.856;12.776;2022-07-06T14:26:27;1.80;;;1.10;;
7377;SDS011;3730;50.856;12.776;2022-07-06T14:28:53;4.33;;;1.10;;
7377;SDS011;3730;50.856;12.776;2022-07-06T14:31:19;1.40;;;1.30;;
7377;SDS011;3730;50.856;12.776;2022-07-06T14:33:45;2.50;;;1.10;;
7377;SDS011;3730;50.856;12.776;2022-07-06T14:36:11;2.47;;;1.23;;
7377;SDS011;3730;50.856;12.776;2022-07-06T14:38:38;2.60;;;1.60;;
7377;SDS011;3730;50.856;12.776;2022-07-06T14:41:04;2.23;;;1.20;;
7377;SDS011;3730;50.856;12.776;2022-07-06T14:43:30;1.17;;;0.80;;
7377;SDS011;3730;50.856;12.776;2022-07-06T14:45:57;2.67;;;1.43;;
7377;SDS011;3730;50.856;12.776;2022-07-06T14:48:23;4.40;;;1.20;;
7377;SDS011;3730;50.856;12.776;2022-07-06T14:50:49;2.30;;;1.03;;
7377;SDS011;3730;50.856;12.776;2022-07-06T14:53:15;2.13;;;1.00;;
7377;SDS011;3730;50.856;12.776;2022-07-06T14:55:41;3.40;;;0.80;;
7377;SDS011;3730;50.856;12.776;2022-07-06T14:58:07;1.37;;;0.90;;
7377;SDS011;3730;50.856;12.776;2022-07-06T15:00:33;1.87;;;1.00;;
7377;SDS011;3730;50.856;12.776;2022-07-06T15:02:59;2.57;;;0.90;;
7377;SDS011;3730;50.856;12.776;2022-07-06T15:05:25;1.73;;;1.00;;
7377;SDS011;3730;50.856;12.776;2022-07-06T15:07:51;2.00;;;1.10;;
7377;SDS011;3730;50.856;12.776;2022-07-06T15:10:17;1.50;;;0.90;;
7377;SDS011;3730;50.856;12.776;2022-07-06T15:12:43;1.17;;;0.93;;
7377;SDS011;3730;50.856;12.776;2022-07-06T15:15:09;2.73;;;1.10;;
7377;SDS011;3730;50.856;12.776;2022-07-06T15:17:36;3.87;;;1.40;;